sensor_id;sensor_type;location;lat;lon;timestamp;temperature;humidity
18091;DHT22;9172;49.948;9.208;2023-11-19T00:01:53;7.60;99.90
18091;DHT22;9172;49.948;9.208;2023-11-19T00:04:21;7.60;99.90
18091;DHT22;9172;49.948;9.208;2023-11-19T00:06:50;7.60;99.90
18091;DHT22;9172;49.948;9.208;2023-11-19T00:09:19;7.60;99.90
18091;DHT22;9172;49.948;9.208;2023-11-19T00:11:47;7.60;99.90
18091;DHT22;9172;49.948;9.208;2023-11-19T00:14:16;7.60;99.90
18091;DHT22;9172;49.948;9.208;2023-11-19T00:16:44;7.60;99.90
18091;DHT22;9172;49.948;9.208;2023-11-19T00:19:13;7.60;99.90
18091;DHT22;9172;49.948;9.208;2023-11-19T00:21:41;7.60;99.90
18091;DHT22;9172;49.948;9.208;2023-11-19T00:24:10;7.70;99.90
18091;DHT22;9172;49.948;9.208;2023-11-19T00:26:40;7.70;99.90
18091;DHT22;9172;49.948;9.208;2023-11-19T00:29:09;7.70;99.90
18091;DHT22;9172;49.948;9.208;2023-11-19T00:31:37;7.80;99.90
18091;DHT22;9172;49.948;9.208;2023-11-19T00:34:06;7.70;99.90
18091;DHT22;9172;49.948;9.208;2023-11-19T00:36:35;7.80;99.90
18091;DHT22;9172;49.948;9.208;2023-11-19T00:39:03;7.80;99.90
18091;DHT22;9172;49.948;9.208;2023-11-19T00:41:33;7.80;99.90
18091;DHT22;9172;49.948;9.208;2023-11-19T00:44:01;7.80;99.90
18091;DHT22;9172;49.948;9.208;2023-11-19T00:46:30;7.80;99.90
18091;DHT22;9172;49.948;9.208;2023-11-19T00:49:00;7.90;99.90
18091;DHT22;9172;49.948;9.208;2023-11-19T00:51:28;7.90;99.90
18091;DHT22;9172;49.948;9.208;2023-11-19T00:53:58;7.90;99.90
18091;DHT22;9172;49.948;9.208;2023-11-19T00:56:28;7.90;99.90
18091;DHT22;9172;49.948;9.208;2023-11-19T00:58:56;8.00;99.90
18091;DHT22;9172;49.948;9.208;2023-11-19T01:01:27;8.00;99.90
18091;DHT22;9172;49.948;9.208;2023-11-19T01:03:55;8.00;99.90
18091;DHT22;9172;49.948;9.208;2023-11-19T01:06:28;8.00;99.90
18091;DHT22;9172;49.948;9.208;2023-11-19T01:08:57;8.00;99.90
18091;DHT22;9172;49.948;9.208;2023-11-19T01:11:27;8.00;99.90
18091;DHT22;9172;49.948;9.208;2023-11-19T01:13:55;8.00;99.90
18091;DHT22;9172;49.948;9.208;2023-11-19T01:16:24;8.10;99.90
18091;DHT22;9172;49.948;9.208;2023-11-19T01:18:54;8.00;99.90
18091;DHT22;9172;49.948;9.208;2023-11-19T01:21:23;8.10;99.90
18091;DHT22;9172;49.948;9.208;2023-11-19T01:23:52;8.10;99.90
18091;DHT22;9172;49.948;9.208;2023-11-19T01:26:21;8.10;99.90
18091;DHT22;9172;49.948;9.208;2023-11-19T01:28:49;8.10;99.90
18091;DHT22;9172;49.948;9.208;2023-11-19T01:31:19;8.10;99.90
18091;DHT22;9172;49.948;9.208;2023-11-19T01:33:48;8.10;99.90
18091;DHT22;9172;49.948;9.208;2023-11-19T01:36:16;8.20;99.90
18091;DHT22;9172;49.948;9.208;2023-11-19T01:38:45;8.10;99.90
18091;DHT22;9172;49.948;9.208;2023-11-19T01:41:13;8.20;99.90
18091;DHT22;9172;49.948;9.208;2023-11-19T01:43:42;8.20;99.90
18091;DHT22;9172;49.948;9.208;2023-11-19T01:46:12;8.20;99.90
18091;DHT22;9172;49.948;9.208;2023-11-19T01:48:44;8.20;99.90
18091;DHT22;9172;49.948;9.208;2023-11-19T01:51:13;8.30;99.90
18091;DHT22;9172;49.948;9.208;2023-11-19T01:53:44;8.20;99.90
18091;DHT22;9172;49.948;9.208;2023-11-19T01:58:55;8.30;99.90
18091;DHT22;9172;49.948;9.208;2023-11-19T02:01:24;8.30;99.90
18091;DHT22;9172;49.948;9.208;2023-11-19T02:03:53;8.30;99.90
18091;DHT22;9172;49.948;9.208;2023-11-19T02:06:22;8.40;99.90
18091;DHT22;9172;49.948;9.208;2023-11-19T02:08:51;8.40;99.90
18091;DHT22;9172;49.948;9.208;2023-11-19T02:11:19;8.30;99.90
18091;DHT22;9172;49.948;9.208;2023-11-19T02:13:48;8.40;99.90
18091;DHT22;9172;49.948;9.208;2023-11-19T02:16:17;8.40;99.90
18091;DHT22;9172;49.948;9.208;2023-11-19T02:18:46;8.40;99.90
18091;DHT22;9172;49.948;9.208;2023-11-19T02:21:15;8.40;99.90
18091;DHT22;9172;49.948;9.208;2023-11-19T02:23:45;8.40;99.90
18091;DHT22;9172;49.948;9.208;2023-11-19T02:28:56;8.50;99.90
18091;DHT22;9172;49.948;9.208;2023-11-19T02:31:24;8.50;99.90
18091;DHT22;9172;49.948;9.208;2023-11-19T02:33:54;8.50;99.90
18091;DHT22;9172;49.948;9.208;2023-11-19T02:36:23;8.50;99.90
18091;DHT22;9172;49.948;9.208;2023-11-19T02:38:52;8.50;99.90
18091;DHT22;9172;49.948;9.208;2023-11-19T02:41:20;8.60;99.90
18091;DHT22;9172;49.948;9.208;2023-11-19T02:43:49;8.60;99.90
18091;DHT22;9172;49.948;9.208;2023-11-19T02:46:18;8.70;99.90
18091;DHT22;9172;49.948;9.208;2023-11-19T02:48:47;8.60;99.90
18091;DHT22;9172;49.948;9.208;2023-11-19T02:51:15;8.60;99.90
18091;DHT22;9172;49.948;9.208;2023-11-19T02:53:46;8.60;99.90
18091;DHT22;9172;49.948;9.208;2023-11-19T02:56:15;8.70;99.90
18091;DHT22;9172;49.948;9.208;2023-11-19T02:58:46;8.60;99.90
18091;DHT22;9172;49.948;9.208;2023-11-19T03:01:22;8.70;99.90
18091;DHT22;9172;49.948;9.208;2023-11-19T03:03:53;8.70;99.90
18091;DHT22;9172;49.948;9.208;2023-11-19T03:06:23;8.70;99.90
18091;DHT22;9172;49.948;9.208;2023-11-19T03:08:52;8.70;99.90
18091;DHT22;9172;49.948;9.208;2023-11-19T03:11:20;8.70;99.90
18091;DHT22;9172;49.948;9.208;2023-11-19T03:13:49;8.70;99.90
18091;DHT22;9172;49.948;9.208;2023-11-19T03:16:17;8.70;99.90
18091;DHT22;9172;49.948;9.208;2023-11-19T03:18:46;8.70;99.90
18091;DHT22;9172;49.948;9.208;2023-11-19T03:21:14;8.80;99.90
18091;DHT22;9172;49.948;9.208;2023-11-19T03:23:43;8.80;99.90
18091;DHT22;9172;49.948;9.208;2023-11-19T03:26:13;8.80;99.90
18091;DHT22;9172;49.948;9.208;2023-11-19T03:28:41;8.80;99.90
18091;DHT22;9172;49.948;9.208;2023-11-19T03:31:10;8.80;99.90
18091;DHT22;9172;49.948;9.208;2023-11-19T03:33:38;8.90;99.90
18091;DHT22;9172;49.948;9.208;2023-11-19T03:36:08;8.90;99.90
18091;DHT22;9172;49.948;9.208;2023-11-19T03:38:37;8.90;99.90
18091;DHT22;9172;49.948;9.208;2023-11-19T03:41:11;8.90;99.90
18091;DHT22;9172;49.948;9.208;2023-11-19T03:43:40;8.90;99.90
18091;DHT22;9172;49.948;9.208;2023-11-19T03:46:18;9.00;99.90
18091;DHT22;9172;49.948;9.208;2023-11-19T03:48:47;8.90;99.90
18091;DHT22;9172;49.948;9.208;2023-11-19T03:51:16;9.00;99.90
18091;DHT22;9172;49.948;9.208;2023-11-19T03:53:45;9.00;99.90
18091;DHT22;9172;49.948;9.208;2023-11-19T03:56:14;9.00;99.90
18091;DHT22;9172;49.948;9.208;2023-11-19T03:58:42;9.00;99.90
18091;DHT22;9172;49.948;9.208;2023-11-19T04:01:12;9.00;99.90
18091;DHT22;9172;49.948;9.208;2023-11-19T04:03:41;9.00;99.90
18091;DHT22;9172;49.948;9.208;2023-11-19T04:06:10;9.10;99.90
18091;DHT22;9172;49.948;9.208;2023-11-19T04:08:38;9.10;99.90
18091;DHT22;9172;49.948;9.208;2023-11-19T04:11:07;9.10;99.90
18091;DHT22;9172;49.948;9.208;2023-11-19T04:13:36;9.10;99.90
18091;DHT22;9172;49.948;9.208;2023-11-19T04:16:05;9.20;99.90
18091;DHT22;9172;49.948;9.208;2023-11-19T04:18:34;9.20;99.90
18091;DHT22;9172;49.948;9.208;2023-11-19T04:21:06;9.20;99.90
18091;DHT22;9172;49.948;9.208;2023-11-19T04:23:34;9.20;99.90
18091;DHT22;9172;49.948;9.208;2023-11-19T04:26:04;9.30;99.90
18091;DHT22;9172;49.948;9.208;2023-11-19T04:28:34;9.30;99.90
18091;DHT22;9172;49.948;9.208;2023-11-19T04:31:02;9.30;99.90
18091;DHT22;9172;49.948;9.208;2023-11-19T04:33:31;9.30;99.90
18091;DHT22;9172;49.948;9.208;2023-11-19T04:36:00;9.30;99.90
18091;DHT22;9172;49.948;9.208;2023-11-19T04:38:29;9.30;99.90
18091;DHT22;9172;49.948;9.208;2023-11-19T04:40:58;9.40;99.90
18091;DHT22;9172;49.948;9.208;2023-11-19T04:43:27;9.40;99.90
18091;DHT22;9172;49.948;9.208;2023-11-19T04:45:56;9.40;99.90
18091;DHT22;9172;49.948;9.208;2023-11-19T04:48:24;9.40;99.90
18091;DHT22;9172;49.948;9.208;2023-11-19T04:50:53;9.40;99.90
18091;DHT22;9172;49.948;9.208;2023-11-19T04:53:21;9.40;99.90
18091;DHT22;9172;49.948;9.208;2023-11-19T04:55:50;9.40;99.90
18091;DHT22;9172;49.948;9.208;2023-11-19T04:58:18;9.40;99.90
18091;DHT22;9172;49.948;9.208;2023-11-19T05:00:47;9.40;99.90
18091;DHT22;9172;49.948;9.208;2023-11-19T05:03:15;9.40;99.90
18091;DHT22;9172;49.948;9.208;2023-11-19T05:05:45;9.40;99.90
18091;DHT22;9172;49.948;9.208;2023-11-19T05:08:13;9.40;99.90
18091;DHT22;9172;49.948;9.208;2023-11-19T05:10:42;9.50;99.90
18091;DHT22;9172;49.948;9.208;2023-11-19T05:13:11;9.50;99.90
18091;DHT22;9172;49.948;9.208;2023-11-19T05:15:40;9.50;99.90
18091;DHT22;9172;49.948;9.208;2023-11-19T05:18:08;9.50;99.90
18091;DHT22;9172;49.948;9.208;2023-11-19T05:20:37;9.60;99.90
18091;DHT22;9172;49.948;9.208;2023-11-19T05:23:06;9.60;99.90
18091;DHT22;9172;49.948;9.208;2023-11-19T05:25:34;9.60;99.90
18091;DHT22;9172;49.948;9.208;2023-11-19T05:28:04;9.60;99.90
18091;DHT22;9172;49.948;9.208;2023-11-19T05:30:33;9.60;99.90
18091;DHT22;9172;49.948;9.208;2023-11-19T05:35:46;9.60;99.90
18091;DHT22;9172;49.948;9.208;2023-11-19T05:38:15;9.60;99.90
18091;DHT22;9172;49.948;9.208;2023-11-19T05:40:43;9.60;99.90
18091;DHT22;9172;49.948;9.208;2023-11-19T05:43:12;9.70;99.90
18091;DHT22;9172;49.948;9.208;2023-11-19T05:45:42;9.70;99.90
18091;DHT22;9172;49.948;9.208;2023-11-19T05:48:10;9.70;99.90
18091;DHT22;9172;49.948;9.208;2023-11-19T05:50:47;9.70;99.90
18091;DHT22;9172;49.948;9.208;2023-11-19T05:53:17;9.70;99.90
18091;DHT22;9172;49.948;9.208;2023-11-19T05:55:46;9.70;99.90
18091;DHT22;9172;49.948;9.208;2023-11-19T05:58:16;9.70;99.90
18091;DHT22;9172;49.948;9.208;2023-11-19T06:03:24;9.70;99.90
18091;DHT22;9172;49.948;9.208;2023-11-19T06:05:53;9.70;99.90
18091;DHT22;9172;49.948;9.208;2023-11-19T06:08:22;9.80;99.90
18091;DHT22;9172;49.948;9.208;2023-11-19T06:10:50;9.80;99.90
18091;DHT22;9172;49.948;9.208;2023-11-19T06:13:19;9.90;99.90
18091;DHT22;9172;49.948;9.208;2023-11-19T06:15:49;9.90;99.90
18091;DHT22;9172;49.948;9.208;2023-11-19T06:18:18;9.90;99.90
18091;DHT22;9172;49.948;9.208;2023-11-19T06:20:47;9.90;99.90
18091;DHT22;9172;49.948;9.208;2023-11-19T06:23:17;9.90;99.90
18091;DHT22;9172;49.948;9.208;2023-11-19T06:25:45;9.90;99.90
18091;DHT22;9172;49.948;9.208;2023-11-19T06:28:14;10.00;99.90
18091;DHT22;9172;49.948;9.208;2023-11-19T06:30:42;10.00;99.90
18091;DHT22;9172;49.948;9.208;2023-11-19T06:35:52;10.00;99.90
18091;DHT22;9172;49.948;9.208;2023-11-19T06:38:22;10.00;99.90
18091;DHT22;9172;49.948;9.208;2023-11-19T06:40:50;10.00;99.90
18091;DHT22;9172;49.948;9.208;2023-11-19T06:43:19;10.00;99.90
18091;DHT22;9172;49.948;9.208;2023-11-19T06:45:48;10.00;99.90
18091;DHT22;9172;49.948;9.208;2023-11-19T06:48:17;10.00;99.90
18091;DHT22;9172;49.948;9.208;2023-11-19T06:50:46;10.00;99.90
18091;DHT22;9172;49.948;9.208;2023-11-19T06:53:17;10.10;99.90
18091;DHT22;9172;49.948;9.208;2023-11-19T06:55:45;10.10;99.90
18091;DHT22;9172;49.948;9.208;2023-11-19T06:58:14;10.20;99.90
18091;DHT22;9172;49.948;9.208;2023-11-19T07:00:43;10.20;99.90
18091;DHT22;9172;49.948;9.208;2023-11-19T07:05:50;10.20;99.90
18091;DHT22;9172;49.948;9.208;2023-11-19T07:08:19;10.20;99.90
18091;DHT22;9172;49.948;9.208;2023-11-19T07:10:48;10.20;99.90
18091;DHT22;9172;49.948;9.208;2023-11-19T07:13:16;10.20;99.90
18091;DHT22;9172;49.948;9.208;2023-11-19T07:15:45;10.30;99.90
18091;DHT22;9172;49.948;9.208;2023-11-19T07:18:13;10.30;99.90
18091;DHT22;9172;49.948;9.208;2023-11-19T07:20:42;10.30;99.90
18091;DHT22;9172;49.948;9.208;2023-11-19T07:23:10;10.40;99.90
18091;DHT22;9172;49.948;9.208;2023-11-19T07:25:40;10.50;99.90
18091;DHT22;9172;49.948;9.208;2023-11-19T07:28:08;10.70;99.90
18091;DHT22;9172;49.948;9.208;2023-11-19T07:30:38;10.70;99.90
18091;DHT22;9172;49.948;9.208;2023-11-19T07:33:07;10.60;99.90
18091;DHT22;9172;49.948;9.208;2023-11-19T07:35:35;10.60;99.90
18091;DHT22;9172;49.948;9.208;2023-11-19T07:38:04;10.70;99.90
18091;DHT22;9172;49.948;9.208;2023-11-19T07:40:33;10.80;99.90
18091;DHT22;9172;49.948;9.208;2023-11-19T07:43:02;10.70;99.90
18091;DHT22;9172;49.948;9.208;2023-11-19T07:45:30;10.80;99.90
18091;DHT22;9172;49.948;9.208;2023-11-19T07:47:58;10.80;99.90
18091;DHT22;9172;49.948;9.208;2023-11-19T07:50:28;10.90;99.90
18091;DHT22;9172;49.948;9.208;2023-11-19T07:52:59;10.90;99.90
18091;DHT22;9172;49.948;9.208;2023-11-19T07:55:27;10.80;99.90
18091;DHT22;9172;49.948;9.208;2023-11-19T07:57:56;10.90;99.90
18091;DHT22;9172;49.948;9.208;2023-11-19T08:00:24;10.90;99.90
18091;DHT22;9172;49.948;9.208;2023-11-19T08:02:53;10.90;99.90
18091;DHT22;9172;49.948;9.208;2023-11-19T08:05:21;10.90;99.90
18091;DHT22;9172;49.948;9.208;2023-11-19T08:07:52;10.80;99.90
18091;DHT22;9172;49.948;9.208;2023-11-19T08:10:20;10.80;99.90
18091;DHT22;9172;49.948;9.208;2023-11-19T08:12:50;10.80;99.90
18091;DHT22;9172;49.948;9.208;2023-11-19T08:15:18;10.80;99.90
18091;DHT22;9172;49.948;9.208;2023-11-19T08:17:47;10.80;99.90
18091;DHT22;9172;49.948;9.208;2023-11-19T08:20:15;10.80;99.90
18091;DHT22;9172;49.948;9.208;2023-11-19T08:22:47;10.80;99.90
18091;DHT22;9172;49.948;9.208;2023-11-19T08:25:16;10.80;99.90
18091;DHT22;9172;49.948;9.208;2023-11-19T08:27:45;10.90;99.90
18091;DHT22;9172;49.948;9.208;2023-11-19T08:30:14;10.90;99.90
18091;DHT22;9172;49.948;9.208;2023-11-19T08:32:43;10.90;99.90
18091;DHT22;9172;49.948;9.208;2023-11-19T08:35:11;10.90;99.90
18091;DHT22;9172;49.948;9.208;2023-11-19T08:37:40;10.90;99.90
18091;DHT22;9172;49.948;9.208;2023-11-19T08:40:11;10.90;99.90
18091;DHT22;9172;49.948;9.208;2023-11-19T08:42:40;11.00;99.90
18091;DHT22;9172;49.948;9.208;2023-11-19T08:45:09;11.00;99.90
18091;DHT22;9172;49.948;9.208;2023-11-19T08:47:38;11.00;99.90
18091;DHT22;9172;49.948;9.208;2023-11-19T08:50:08;11.00;99.90
18091;DHT22;9172;49.948;9.208;2023-11-19T08:52:37;11.10;99.90
18091;DHT22;9172;49.948;9.208;2023-11-19T08:55:07;11.10;99.90
18091;DHT22;9172;49.948;9.208;2023-11-19T08:57:40;11.20;99.90
18091;DHT22;9172;49.948;9.208;2023-11-19T09:00:10;11.30;99.90
18091;DHT22;9172;49.948;9.208;2023-11-19T09:02:41;11.30;99.90
18091;DHT22;9172;49.948;9.208;2023-11-19T09:05:10;11.30;99.90
18091;DHT22;9172;49.948;9.208;2023-11-19T09:07:40;11.40;99.90
18091;DHT22;9172;49.948;9.208;2023-11-19T09:10:09;11.40;99.90
18091;DHT22;9172;49.948;9.208;2023-11-19T09:12:39;11.50;99.90
18091;DHT22;9172;49.948;9.208;2023-11-19T09:15:09;11.60;99.90
18091;DHT22;9172;49.948;9.208;2023-11-19T09:17:38;11.60;99.90
18091;DHT22;9172;49.948;9.208;2023-11-19T09:20:10;11.70;99.90
18091;DHT22;9172;49.948;9.208;2023-11-19T09:22:41;11.70;99.90
18091;DHT22;9172;49.948;9.208;2023-11-19T09:25:09;11.70;99.90
18091;DHT22;9172;49.948;9.208;2023-11-19T09:27:38;11.80;99.90
18091;DHT22;9172;49.948;9.208;2023-11-19T09:30:09;11.90;99.90
18091;DHT22;9172;49.948;9.208;2023-11-19T09:32:37;12.00;99.90
18091;DHT22;9172;49.948;9.208;2023-11-19T09:35:08;12.00;99.90
18091;DHT22;9172;49.948;9.208;2023-11-19T09:37:38;12.00;99.90
18091;DHT22;9172;49.948;9.208;2023-11-19T09:40:09;12.10;99.90
18091;DHT22;9172;49.948;9.208;2023-11-19T09:45:20;12.10;99.90
18091;DHT22;9172;49.948;9.208;2023-11-19T09:47:51;12.10;99.90
18091;DHT22;9172;49.948;9.208;2023-11-19T09:50:20;12.10;99.90
18091;DHT22;9172;49.948;9.208;2023-11-19T09:52:48;12.10;99.90
18091;DHT22;9172;49.948;9.208;2023-11-19T09:55:18;12.10;99.90
18091;DHT22;9172;49.948;9.208;2023-11-19T09:57:48;12.20;99.90
18091;DHT22;9172;49.948;9.208;2023-11-19T10:00:20;12.30;99.90
18091;DHT22;9172;49.948;9.208;2023-11-19T10:02:49;12.30;99.90
18091;DHT22;9172;49.948;9.208;2023-11-19T10:05:20;12.40;99.90
18091;DHT22;9172;49.948;9.208;2023-11-19T10:07:49;12.40;99.90
18091;DHT22;9172;49.948;9.208;2023-11-19T10:10:18;12.40;99.90
18091;DHT22;9172;49.948;9.208;2023-11-19T10:12:47;12.40;99.90
18091;DHT22;9172;49.948;9.208;2023-11-19T10:15:19;12.40;99.90
18091;DHT22;9172;49.948;9.208;2023-11-19T10:17:48;12.40;99.90
18091;DHT22;9172;49.948;9.208;2023-11-19T10:20:17;12.40;99.90
18091;DHT22;9172;49.948;9.208;2023-11-19T10:22:45;12.40;99.90
18091;DHT22;9172;49.948;9.208;2023-11-19T10:25:23;12.30;99.90
18091;DHT22;9172;49.948;9.208;2023-11-19T10:27:52;12.30;99.90
18091;DHT22;9172;49.948;9.208;2023-11-19T10:30:22;12.30;99.90
18091;DHT22;9172;49.948;9.208;2023-11-19T10:33:05;12.30;99.90
18091;DHT22;9172;49.948;9.208;2023-11-19T10:35:34;12.30;99.90
18091;DHT22;9172;49.948;9.208;2023-11-19T10:40:59;12.30;99.90
18091;DHT22;9172;49.948;9.208;2023-11-19T10:43:27;12.20;99.90
18091;DHT22;9172;49.948;9.208;2023-11-19T10:46:09;12.20;99.90
18091;DHT22;9172;49.948;9.208;2023-11-19T10:48:38;12.20;99.90
18091;DHT22;9172;49.948;9.208;2023-11-19T10:51:08;12.20;99.90
18091;DHT22;9172;49.948;9.208;2023-11-19T10:53:38;12.30;99.90
18091;DHT22;9172;49.948;9.208;2023-11-19T10:58:47;12.20;99.90
18091;DHT22;9172;49.948;9.208;2023-11-19T11:01:20;12.20;99.90
18091;DHT22;9172;49.948;9.208;2023-11-19T11:03:50;12.20;99.90
18091;DHT22;9172;49.948;9.208;2023-11-19T11:06:20;12.20;99.90
18091;DHT22;9172;49.948;9.208;2023-11-19T11:08:51;12.10;99.90
18091;DHT22;9172;49.948;9.208;2023-11-19T11:11:20;12.10;99.90
18091;DHT22;9172;49.948;9.208;2023-11-19T11:13:50;12.20;99.90
18091;DHT22;9172;49.948;9.208;2023-11-19T11:16:20;12.20;99.90
18091;DHT22;9172;49.948;9.208;2023-11-19T11:18:50;12.20;99.90
18091;DHT22;9172;49.948;9.208;2023-11-19T11:21:23;12.20;99.90
18091;DHT22;9172;49.948;9.208;2023-11-19T11:24:12;12.30;99.90
18091;DHT22;9172;49.948;9.208;2023-11-19T11:26:56;12.20;99.90
18091;DHT22;9172;49.948;9.208;2023-11-19T11:29:29;12.20;99.90
18091;DHT22;9172;49.948;9.208;2023-11-19T11:32:03;12.30;99.90
18091;DHT22;9172;49.948;9.208;2023-11-19T11:34:44;12.30;99.90
18091;DHT22;9172;49.948;9.208;2023-11-19T11:37:18;12.30;99.90
18091;DHT22;9172;49.948;9.208;2023-11-19T11:39:48;12.30;99.90
18091;DHT22;9172;49.948;9.208;2023-11-19T11:42:34;12.30;99.90
18091;DHT22;9172;49.948;9.208;2023-11-19T11:45:05;12.20;99.90
18091;DHT22;9172;49.948;9.208;2023-11-19T11:50:51;12.20;99.90
18091;DHT22;9172;49.948;9.208;2023-11-19T11:53:22;12.20;99.90
18091;DHT22;9172;49.948;9.208;2023-11-19T11:55:56;12.20;99.90
18091;DHT22;9172;49.948;9.208;2023-11-19T12:01:22;12.20;99.90
18091;DHT22;9172;49.948;9.208;2023-11-19T12:03:55;12.20;99.90
18091;DHT22;9172;49.948;9.208;2023-11-19T12:06:26;12.20;99.90
18091;DHT22;9172;49.948;9.208;2023-11-19T12:08:59;12.20;99.90
18091;DHT22;9172;49.948;9.208;2023-11-19T12:11:29;12.20;99.90
18091;DHT22;9172;49.948;9.208;2023-11-19T12:13:59;12.20;99.90
18091;DHT22;9172;49.948;9.208;2023-11-19T12:16:29;12.30;99.90
18091;DHT22;9172;49.948;9.208;2023-11-19T12:19:02;12.30;99.90
18091;DHT22;9172;49.948;9.208;2023-11-19T12:21:33;12.30;99.90
18091;DHT22;9172;49.948;9.208;2023-11-19T12:24:04;12.30;99.90
18091;DHT22;9172;49.948;9.208;2023-11-19T12:26:36;12.50;99.90
18091;DHT22;9172;49.948;9.208;2023-11-19T12:29:05;12.60;99.90
18091;DHT22;9172;49.948;9.208;2023-11-19T12:31:34;12.80;99.90
18091;DHT22;9172;49.948;9.208;2023-11-19T12:34:09;12.90;99.90
18091;DHT22;9172;49.948;9.208;2023-11-19T12:36:40;13.00;99.90
18091;DHT22;9172;49.948;9.208;2023-11-19T12:39:10;13.00;99.90
18091;DHT22;9172;49.948;9.208;2023-11-19T12:41:52;13.00;99.90
18091;DHT22;9172;49.948;9.208;2023-11-19T12:44:22;12.90;99.90
18091;DHT22;9172;49.948;9.208;2023-11-19T12:47:05;12.90;99.90
18091;DHT22;9172;49.948;9.208;2023-11-19T12:49:34;13.00;99.90
18091;DHT22;9172;49.948;9.208;2023-11-19T12:52:10;13.00;99.90
18091;DHT22;9172;49.948;9.208;2023-11-19T12:54:34;13.10;99.90
18091;DHT22;9172;49.948;9.208;2023-11-19T12:57:04;13.10;99.90
18091;DHT22;9172;49.948;9.208;2023-11-19T12:59:33;13.20;99.90
18091;DHT22;9172;49.948;9.208;2023-11-19T13:02:01;13.20;99.90
18091;DHT22;9172;49.948;9.208;2023-11-19T13:04:32;13.20;99.90
18091;DHT22;9172;49.948;9.208;2023-11-19T13:07:01;13.30;99.90
18091;DHT22;9172;49.948;9.208;2023-11-19T13:09:31;13.40;99.90
18091;DHT22;9172;49.948;9.208;2023-11-19T13:12:00;13.30;99.90
18091;DHT22;9172;49.948;9.208;2023-11-19T13:14:37;13.30;99.90
18091;DHT22;9172;49.948;9.208;2023-11-19T13:17:06;13.40;99.90
18091;DHT22;9172;49.948;9.208;2023-11-19T13:19:34;13.50;99.90
18091;DHT22;9172;49.948;9.208;2023-11-19T13:22:03;13.50;99.90
18091;DHT22;9172;49.948;9.208;2023-11-19T13:24:32;13.60;99.90
18091;DHT22;9172;49.948;9.208;2023-11-19T13:27:00;13.60;99.90
18091;DHT22;9172;49.948;9.208;2023-11-19T13:29:29;13.60;99.90
18091;DHT22;9172;49.948;9.208;2023-11-19T13:31:57;13.60;99.90
18091;DHT22;9172;49.948;9.208;2023-11-19T13:34:27;13.70;99.90
18091;DHT22;9172;49.948;9.208;2023-11-19T13:36:55;13.70;99.90
18091;DHT22;9172;49.948;9.208;2023-11-19T13:39:24;13.60;99.90
18091;DHT22;9172;49.948;9.208;2023-11-19T13:41:54;13.60;99.90
18091;DHT22;9172;49.948;9.208;2023-11-19T13:44:22;13.60;99.90
18091;DHT22;9172;49.948;9.208;2023-11-19T13:46:51;13.50;99.90
18091;DHT22;9172;49.948;9.208;2023-11-19T13:49:19;13.50;99.90
18091;DHT22;9172;49.948;9.208;2023-11-19T13:51:48;13.50;99.90
18091;DHT22;9172;49.948;9.208;2023-11-19T13:54:16;13.50;99.90
18091;DHT22;9172;49.948;9.208;2023-11-19T13:56:46;13.40;99.90
18091;DHT22;9172;49.948;9.208;2023-11-19T13:59:15;13.40;99.90
18091;DHT22;9172;49.948;9.208;2023-11-19T14:01:44;13.40;99.90
18091;DHT22;9172;49.948;9.208;2023-11-19T14:04:12;13.30;99.90
18091;DHT22;9172;49.948;9.208;2023-11-19T14:06:41;13.30;99.90
18091;DHT22;9172;49.948;9.208;2023-11-19T14:09:09;13.30;99.90
18091;DHT22;9172;49.948;9.208;2023-11-19T14:11:38;13.40;99.90
18091;DHT22;9172;49.948;9.208;2023-11-19T14:14:06;13.30;99.90
18091;DHT22;9172;49.948;9.208;2023-11-19T14:16:35;13.30;99.90
18091;DHT22;9172;49.948;9.208;2023-11-19T14:19:05;13.20;99.90
18091;DHT22;9172;49.948;9.208;2023-11-19T14:21:33;13.20;99.90
18091;DHT22;9172;49.948;9.208;2023-11-19T14:24:02;13.20;99.90
18091;DHT22;9172;49.948;9.208;2023-11-19T14:26:31;13.10;99.90
18091;DHT22;9172;49.948;9.208;2023-11-19T14:28:59;13.20;99.90
18091;DHT22;9172;49.948;9.208;2023-11-19T14:31:29;13.20;99.90
18091;DHT22;9172;49.948;9.208;2023-11-19T14:33:58;13.20;99.90
18091;DHT22;9172;49.948;9.208;2023-11-19T14:36:27;13.10;99.90
18091;DHT22;9172;49.948;9.208;2023-11-19T14:38:55;13.00;99.90
18091;DHT22;9172;49.948;9.208;2023-11-19T14:44:06;12.90;99.90
18091;DHT22;9172;49.948;9.208;2023-11-19T14:46:34;12.80;99.90
18091;DHT22;9172;49.948;9.208;2023-11-19T14:49:03;12.70;99.90
18091;DHT22;9172;49.948;9.208;2023-11-19T14:51:31;12.70;99.90
18091;DHT22;9172;49.948;9.208;2023-11-19T14:54:00;12.60;99.90
18091;DHT22;9172;49.948;9.208;2023-11-19T14:56:29;12.60;99.90
18091;DHT22;9172;49.948;9.208;2023-11-19T14:58:58;12.60;99.90
18091;DHT22;9172;49.948;9.208;2023-11-19T15:01:26;12.60;99.90
18091;DHT22;9172;49.948;9.208;2023-11-19T15:03:56;12.60;99.90
18091;DHT22;9172;49.948;9.208;2023-11-19T15:06:25;12.60;99.90
18091;DHT22;9172;49.948;9.208;2023-11-19T15:08:54;12.60;99.90
18091;DHT22;9172;49.948;9.208;2023-11-19T15:11:23;12.60;99.90
18091;DHT22;9172;49.948;9.208;2023-11-19T15:13:52;12.60;99.90
18091;DHT22;9172;49.948;9.208;2023-11-19T15:16:20;12.60;99.90
18091;DHT22;9172;49.948;9.208;2023-11-19T15:18:51;12.60;99.90
18091;DHT22;9172;49.948;9.208;2023-11-19T15:21:20;12.50;99.90
18091;DHT22;9172;49.948;9.208;2023-11-19T15:23:48;12.40;99.90
18091;DHT22;9172;49.948;9.208;2023-11-19T15:26:17;12.50;99.90
18091;DHT22;9172;49.948;9.208;2023-11-19T15:28:46;12.40;99.90
18091;DHT22;9172;49.948;9.208;2023-11-19T15:31:15;12.40;99.90
18091;DHT22;9172;49.948;9.208;2023-11-19T15:33:44;12.40;99.90
18091;DHT22;9172;49.948;9.208;2023-11-19T15:36:14;12.40;99.90
18091;DHT22;9172;49.948;9.208;2023-11-19T15:38:43;12.40;99.90
18091;DHT22;9172;49.948;9.208;2023-11-19T15:41:11;12.40;99.90
18091;DHT22;9172;49.948;9.208;2023-11-19T15:43:40;12.50;99.90
18091;DHT22;9172;49.948;9.208;2023-11-19T15:46:09;12.40;99.90
18091;DHT22;9172;49.948;9.208;2023-11-19T15:48:38;12.40;99.90
18091;DHT22;9172;49.948;9.208;2023-11-19T15:51:07;12.40;99.90
18091;DHT22;9172;49.948;9.208;2023-11-19T15:53:35;12.40;99.90
18091;DHT22;9172;49.948;9.208;2023-11-19T15:56:06;12.40;99.90
18091;DHT22;9172;49.948;9.208;2023-11-19T15:58:35;12.30;99.90
18091;DHT22;9172;49.948;9.208;2023-11-19T16:01:04;12.20;99.90
18091;DHT22;9172;49.948;9.208;2023-11-19T16:03:33;12.20;99.90
18091;DHT22;9172;49.948;9.208;2023-11-19T16:06:02;12.20;99.90
18091;DHT22;9172;49.948;9.208;2023-11-19T16:08:31;12.20;99.90
18091;DHT22;9172;49.948;9.208;2023-11-19T16:10:59;12.10;99.90
18091;DHT22;9172;49.948;9.208;2023-11-19T16:13:28;12.10;99.90
18091;DHT22;9172;49.948;9.208;2023-11-19T16:15:57;12.00;99.90
18091;DHT22;9172;49.948;9.208;2023-11-19T16:18:26;12.00;99.90
18091;DHT22;9172;49.948;9.208;2023-11-19T16:20:55;12.00;99.90
18091;DHT22;9172;49.948;9.208;2023-11-19T16:23:24;12.00;99.90
18091;DHT22;9172;49.948;9.208;2023-11-19T16:25:54;12.00;99.90
18091;DHT22;9172;49.948;9.208;2023-11-19T16:28:22;11.90;99.90
18091;DHT22;9172;49.948;9.208;2023-11-19T16:33:37;11.90;99.90
18091;DHT22;9172;49.948;9.208;2023-11-19T16:36:07;11.90;99.90
18091;DHT22;9172;49.948;9.208;2023-11-19T16:38:37;11.90;99.90
18091;DHT22;9172;49.948;9.208;2023-11-19T16:41:06;11.90;99.90
18091;DHT22;9172;49.948;9.208;2023-11-19T16:43:34;11.80;99.90